createdAt,value
2022-10-13T00:01:14.025Z,101451.88
2022-10-13T00:03:41.939Z,101416.25
2022-10-13T00:06:11.087Z,101582.19
2022-10-13T00:08:38.320Z,101578.25
2022-10-13T00:11:17.322Z,101578.06
2022-10-13T00:13:45.131Z,101568.50
2022-10-13T00:16:14.254Z,101434.91
2022-10-13T00:18:41.057Z,101508.00
2022-10-13T00:21:13.987Z,101454.41
2022-10-13T00:23:40.966Z,101553.41
2022-10-13T00:26:11.019Z,101573.41
2022-10-13T00:28:38.623Z,101542.94
2022-10-13T00:31:25.159Z,101516.38
2022-10-13T00:33:52.965Z,101467.25
2022-10-13T00:36:22.277Z,101555.78
2022-10-13T00:38:49.275Z,101529.06
2022-10-13T00:41:16.190Z,101536.31
2022-10-13T00:43:57.894Z,101561.75
2022-10-13T00:46:26.813Z,101556.88
2022-10-13T00:48:54.669Z,101541.25
2022-10-13T00:51:24.474Z,101523.16
2022-10-13T00:53:52.839Z,101558.66
2022-10-13T00:56:21.638Z,101568.53
2022-10-13T00:58:49.597Z,101559.13
2022-10-13T01:01:16.987Z,101515.75
2022-10-13T01:03:43.544Z,101538.22
2022-10-13T01:06:12.628Z,101556.19
2022-10-13T01:08:39.237Z,101517.19
2022-10-13T01:11:14.849Z,101432.31
2022-10-13T01:13:53.503Z,101537.78
2022-10-13T01:16:41.500Z,101505.44
2022-10-13T01:19:46.687Z,101537.00
2022-10-13T01:22:25.854Z,101533.63
2022-10-13T01:25:12.177Z,101532.88
2022-10-13T01:28:01.128Z,101517.28
2022-10-13T01:30:29.416Z,101527.56
2022-10-13T01:33:26.591Z,101499.13
2022-10-13T01:36:16.757Z,101513.34
2022-10-13T01:38:57.201Z,101488.38
2022-10-13T01:41:37.532Z,101503.59
2022-10-13T01:44:16.034Z,101477.56
2022-10-13T01:46:46.221Z,101362.53
2022-10-13T01:49:16.928Z,101457.28
2022-10-13T01:51:44.974Z,101514.34
2022-10-13T01:54:11.639Z,101498.66
2022-10-13T01:56:38.210Z,101413.97
2022-10-13T01:59:14.199Z,101504.78
2022-10-13T02:02:08.227Z,101402.16
2022-10-13T02:04:59.508Z,101495.97
2022-10-13T02:07:35.306Z,101497.81
2022-10-13T02:10:07.893Z,101492.50
2022-10-13T02:12:43.470Z,101500.28
2022-10-13T02:15:15.737Z,101505.28
2022-10-13T02:17:42.340Z,101496.28
2022-10-13T02:20:10.845Z,101493.41
2022-10-13T02:22:42.397Z,101487.94
2022-10-13T02:25:09.575Z,101368.31
2022-10-13T02:27:35.981Z,101478.66
2022-10-13T02:30:03.310Z,101459.00
2022-10-13T02:32:29.830Z,101492.91
2022-10-13T02:34:56.300Z,101391.25
2022-10-13T02:37:25.429Z,101475.56
2022-10-13T02:39:52.728Z,101479.47
2022-10-13T02:42:19.585Z,101478.34
2022-10-13T02:44:46.389Z,101452.53
2022-10-13T02:47:13.325Z,101471.88
2022-10-13T02:49:39.848Z,101483.06
2022-10-13T02:52:07.094Z,101479.50
2022-10-13T02:54:33.547Z,101398.19
2022-10-13T02:57:01.172Z,101474.59
2022-10-13T02:59:27.925Z,101439.84
2022-10-13T03:01:54.569Z,101473.47
2022-10-13T03:04:20.958Z,101461.59
2022-10-13T03:06:47.571Z,101443.94
2022-10-13T03:09:14.147Z,101457.81
2022-10-13T03:11:40.722Z,101469.47
2022-10-13T03:14:07.332Z,101468.94
2022-10-13T03:16:33.901Z,101458.47
2022-10-13T03:19:00.460Z,101423.66
2022-10-13T03:21:27.089Z,101436.00
2022-10-13T03:23:54.134Z,101427.63
2022-10-13T03:26:20.674Z,101430.44
2022-10-13T03:28:50.840Z,101423.19
2022-10-13T03:31:18.811Z,101435.59
2022-10-13T03:33:45.751Z,101436.34
2022-10-13T03:36:13.406Z,101428.09
2022-10-13T03:38:40.275Z,101376.59
2022-10-13T03:41:09.295Z,101430.88
2022-10-13T03:43:43.613Z,101441.03
2022-10-13T03:46:15.065Z,101405.44
2022-10-13T03:48:42.322Z,101335.63
2022-10-13T03:51:11.693Z,101442.06
2022-10-13T03:53:38.076Z,101422.81
2022-10-13T03:56:25.039Z,101430.06
2022-10-13T03:58:54.551Z,101410.31
2022-10-13T04:01:23.526Z,101415.59
2022-10-13T04:03:52.586Z,101421.63
2022-10-13T04:06:19.235Z,101439.56
2022-10-13T04:08:46.256Z,101324.34
2022-10-13T04:11:15.555Z,101442.34
2022-10-13T04:13:42.670Z,101441.13
2022-10-13T04:16:13.463Z,101392.72
2022-10-13T04:18:44.509Z,101437.78
2022-10-13T04:21:14.955Z,101417.88
2022-10-13T04:23:41.924Z,101430.09
2022-10-13T04:26:16.559Z,101434.56
2022-10-13T04:28:43.492Z,101287.16
2022-10-13T04:31:10.072Z,101435.09
2022-10-13T04:33:36.963Z,101439.81
2022-10-13T04:36:05.495Z,101433.13
2022-10-13T04:38:32.260Z,101397.16
2022-10-13T04:40:59.279Z,101443.94
2022-10-13T04:43:26.372Z,101421.00
2022-10-13T04:45:53.183Z,101385.41
2022-10-13T04:48:20.647Z,101424.88
2022-10-13T04:50:47.041Z,101348.22
2022-10-13T04:53:18.926Z,101427.09
2022-10-13T04:55:45.502Z,101431.41
2022-10-13T04:58:12.984Z,101416.66
2022-10-13T05:00:46.460Z,101419.94
2022-10-13T05:03:13.460Z,101383.94
2022-10-13T05:05:40.078Z,101416.34
2022-10-13T05:08:06.692Z,101405.63
2022-10-13T05:10:34.886Z,101409.03
2022-10-13T05:13:01.846Z,101398.00
2022-10-13T05:15:28.262Z,101407.69
2022-10-13T05:17:54.889Z,101408.25
2022-10-13T05:20:21.537Z,101384.31
2022-10-13T05:22:48.087Z,101391.63
2022-10-13T05:25:14.750Z,101400.91
2022-10-13T05:27:41.552Z,101397.03
2022-10-13T05:30:08.810Z,101405.44
2022-10-13T05:32:36.069Z,101400.97
2022-10-13T05:35:02.649Z,101396.75
2022-10-13T05:37:29.052Z,101398.94
2022-10-13T05:39:55.930Z,101376.63
2022-10-13T05:42:22.820Z,101399.00
2022-10-13T05:44:49.888Z,101391.59
2022-10-13T05:47:16.692Z,101388.34
2022-10-13T05:49:43.516Z,101390.00
2022-10-13T05:52:12.756Z,101369.91
2022-10-13T05:54:48.535Z,101372.19
2022-10-13T05:57:25.962Z,101385.88
2022-10-13T05:59:58.175Z,101366.94
2022-10-13T06:02:26.765Z,101374.03
2022-10-13T06:04:56.794Z,101348.72
2022-10-13T06:07:23.869Z,101384.09
2022-10-13T06:09:50.944Z,101355.09
2022-10-13T06:12:17.769Z,101370.13
2022-10-13T06:14:44.517Z,101352.84
2022-10-13T06:17:11.050Z,101348.00
2022-10-13T06:19:37.930Z,101322.09
2022-10-13T06:22:04.582Z,101342.56
2022-10-13T06:24:31.738Z,101163.63
2022-10-13T06:26:58.421Z,101338.66
2022-10-13T06:29:24.974Z,101311.41
2022-10-13T06:31:51.703Z,101338.38
2022-10-13T06:34:18.438Z,101338.94
2022-10-13T06:36:45.197Z,101318.47
2022-10-13T06:39:11.892Z,101341.22
2022-10-13T06:41:38.531Z,101336.72
2022-10-13T06:44:05.818Z,101338.00
2022-10-13T06:46:32.573Z,101345.34
2022-10-13T06:48:59.484Z,101347.81
2022-10-13T06:51:26.333Z,101337.00
2022-10-13T06:53:53.180Z,101349.69
2022-10-13T06:56:19.939Z,101198.91
2022-10-13T06:58:47.115Z,101280.31
2022-10-13T07:01:14.822Z,101347.34
2022-10-13T07:03:41.340Z,101356.19
2022-10-13T07:06:08.413Z,101342.50
2022-10-13T07:08:35.826Z,101349.00
2022-10-13T07:11:16.166Z,101360.03
2022-10-13T07:13:46.282Z,101229.34
2022-10-13T07:16:14.420Z,101365.94
2022-10-13T07:18:41.031Z,101379.44
2022-10-13T07:21:08.039Z,101382.06
2022-10-13T07:23:34.938Z,101376.13
2022-10-13T07:26:01.884Z,101376.44
2022-10-13T07:28:29.298Z,101164.38
2022-10-13T07:30:56.270Z,101340.28
2022-10-13T07:33:22.839Z,101313.06
2022-10-13T07:35:49.339Z,101356.59
2022-10-13T07:38:16.609Z,101351.47
2022-10-13T07:40:43.302Z,101334.91
2022-10-13T07:43:10.105Z,101341.47
2022-10-13T07:45:36.882Z,101323.63
2022-10-13T07:48:03.838Z,101338.72
2022-10-13T07:50:30.759Z,101318.06
2022-10-13T07:52:57.418Z,101331.41
2022-10-13T07:55:24.141Z,101331.03
2022-10-13T07:57:51.008Z,101321.06
2022-10-13T08:00:18.021Z,101299.47
2022-10-13T08:02:44.756Z,101320.88
2022-10-13T08:05:11.258Z,101301.59
2022-10-13T08:07:39.372Z,101293.09
2022-10-13T08:10:06.462Z,101315.28
2022-10-13T08:12:35.640Z,101333.91
2022-10-13T08:15:06.177Z,101342.22
2022-10-13T08:17:36.039Z,101321.72
2022-10-13T08:20:03.784Z,101334.94
2022-10-13T08:22:30.332Z,101305.84
2022-10-13T08:24:56.910Z,101288.91
2022-10-13T08:27:37.059Z,101298.75
2022-10-13T08:30:09.783Z,101331.41
2022-10-13T08:32:36.233Z,101343.59
2022-10-13T08:35:02.750Z,101301.47
2022-10-13T08:37:29.470Z,101282.22
2022-10-13T08:39:57.017Z,101288.19
2022-10-13T08:42:23.789Z,101314.84
2022-10-13T08:47:47.453Z,101321.94
2022-10-13T08:50:16.797Z,101256.69
2022-10-13T08:52:57.854Z,101123.72
2022-10-13T08:55:33.198Z,101292.50
2022-10-13T08:58:01.571Z,101304.91
2022-10-13T09:00:30.384Z,101301.16
2022-10-13T09:03:17.930Z,101301.88
2022-10-13T09:05:55.697Z,101280.91
2022-10-13T09:08:25.035Z,101288.09
2022-10-13T09:10:53.149Z,101275.53
2022-10-13T09:13:20.431Z,101288.31
2022-10-13T09:15:50.209Z,101310.84
2022-10-13T09:18:17.052Z,101311.53
2022-10-13T09:20:43.705Z,101316.34
2022-10-13T09:23:22.638Z,101201.84
2022-10-13T09:25:51.768Z,101295.69
2022-10-13T09:28:34.168Z,101299.06
2022-10-13T09:31:21.125Z,101301.25
2022-10-13T09:33:59.741Z,101290.31
2022-10-13T09:36:26.849Z,101284.19
2022-10-13T09:39:16.064Z,101160.91
2022-10-13T09:41:43.916Z,101271.66
2022-10-13T09:44:30.571Z,101250.75
2022-10-13T09:47:01.062Z,101293.13
2022-10-13T09:49:42.799Z,101263.84
2022-10-13T09:52:12.293Z,101313.44
2022-10-13T09:54:50.992Z,101305.09
2022-10-13T09:57:33.284Z,101191.16
2022-10-13T10:00:28.205Z,101301.09
2022-10-13T10:03:04.826Z,101306.91
2022-10-13T10:05:50.629Z,101294.84
2022-10-13T10:08:28.802Z,101223.97
2022-10-13T10:11:10.395Z,101265.75
2022-10-13T10:13:37.093Z,101256.06
2022-10-13T10:16:31.688Z,101276.91
2022-10-13T10:19:34.575Z,101262.09
2022-10-13T10:22:15.582Z,101211.09
2022-10-13T10:25:00.948Z,101277.84
2022-10-13T10:27:39.972Z,101262.63
2022-10-13T10:30:20.295Z,101263.22
2022-10-13T10:33:13.800Z,101264.06
2022-10-13T10:35:59.016Z,101216.59
2022-10-13T10:38:43.918Z,101201.34
2022-10-13T10:41:45.152Z,101136.06
2022-10-13T10:44:22.368Z,101246.75
2022-10-13T10:46:54.823Z,101149.06
2022-10-13T10:49:30.904Z,101249.91
2022-10-13T10:51:59.976Z,101192.19
2022-10-13T10:54:37.188Z,101213.81
2022-10-13T10:57:22.407Z,101244.34
2022-10-13T11:00:03.576Z,101139.22
2022-10-13T11:03:03.821Z,101073.59
2022-10-13T11:06:05.323Z,101225.09
2022-10-13T11:08:37.770Z,101227.31
2022-10-13T11:11:26.622Z,101103.88
2022-10-13T11:13:59.924Z,101143.00
2022-10-13T11:16:29.332Z,101108.44
2022-10-13T11:19:08.475Z,101176.22
2022-10-13T11:21:53.868Z,101201.97
2022-10-13T11:24:42.405Z,101206.78
2022-10-13T11:27:11.636Z,101204.19
2022-10-13T11:29:44.215Z,101078.69
2022-10-13T11:32:35.138Z,101061.88
2022-10-13T11:35:04.622Z,101195.31
2022-10-13T11:38:05.749Z,100993.19
2022-10-13T11:40:44.134Z,101124.44
2022-10-13T11:43:38.435Z,100984.72
2022-10-13T11:46:24.255Z,101178.53
2022-10-13T11:49:09.703Z,101175.97
2022-10-13T11:52:02.603Z,101170.38
2022-10-13T11:54:50.333Z,101172.97
2022-10-13T11:57:23.243Z,101171.22
2022-10-13T11:59:54.713Z,101164.75
2022-10-13T12:02:24.200Z,101169.34
2022-10-13T12:05:25.544Z,101131.88
2022-10-13T12:08:04.325Z,101160.56
2022-10-13T12:10:35.435Z,101114.59
2022-10-13T12:13:04.415Z,101141.75
2022-10-13T12:15:36.834Z,101063.13
2022-10-13T12:18:20.509Z,101167.50
2022-10-13T12:20:55.552Z,101174.31
2022-10-13T12:23:22.452Z,101162.94
2022-10-13T12:25:56.463Z,101050.41
2022-10-13T12:28:25.906Z,101165.59
2022-10-13T12:30:58.444Z,100987.53
2022-10-13T12:33:38.756Z,101157.13
2022-10-13T12:36:18.687Z,101125.25
2022-10-13T12:38:54.073Z,101137.69
2022-10-13T12:41:26.930Z,101152.94
2022-10-13T12:43:54.193Z,101128.91
2022-10-13T12:46:39.168Z,101051.34
2022-10-13T12:49:07.917Z,101118.31
2022-10-13T12:51:36.930Z,101132.34
2022-10-13T12:54:18.431Z,101139.53
2022-10-13T12:56:45.232Z,101143.75
2022-10-13T12:59:18.091Z,101142.59
2022-10-13T13:01:45.589Z,101042.81
2022-10-13T13:04:29.565Z,101062.78
2022-10-13T13:06:58.941Z,101073.84
2022-10-13T13:09:29.362Z,101148.16
2022-10-13T13:12:11.057Z,101150.00
2022-10-13T13:14:49.234Z,101103.47
2022-10-13T13:17:38.518Z,101145.38
2022-10-13T13:20:20.262Z,101126.63
2022-10-13T13:22:46.926Z,101131.53
2022-10-13T13:25:14.839Z,101139.28
2022-10-13T13:27:41.693Z,101139.75
2022-10-13T13:30:13.335Z,101138.06
2022-10-13T13:32:40.555Z,101136.63
2022-10-13T13:35:07.580Z,101016.22
2022-10-13T13:37:40.280Z,101054.50
2022-10-13T13:40:13.804Z,101046.53
2022-10-13T13:42:40.242Z,101143.81
2022-10-13T13:45:07.794Z,101116.63
2022-10-13T13:47:34.402Z,101134.34
2022-10-13T13:50:01.124Z,101072.91
2022-10-13T13:52:28.044Z,101132.25
2022-10-13T13:54:56.077Z,101127.31
2022-10-13T13:57:23.092Z,101133.00
2022-10-13T13:59:49.751Z,101133.59
2022-10-13T14:02:20.197Z,101102.72
2022-10-13T14:04:47.217Z,101135.91
2022-10-13T14:07:14.006Z,101132.34
2022-10-13T14:09:40.710Z,101132.56
2022-10-13T14:12:07.448Z,101117.00
2022-10-13T14:14:34.475Z,101134.78
2022-10-13T14:17:01.759Z,101121.00
2022-10-13T14:19:30.726Z,101145.78
2022-10-13T14:21:57.262Z,101123.53
2022-10-13T14:24:23.916Z,101114.66
2022-10-13T14:26:53.103Z,101110.00
2022-10-13T14:29:22.166Z,101031.44
2022-10-13T14:31:48.849Z,101123.53
2022-10-13T14:34:15.429Z,101125.50
2022-10-13T14:36:43.004Z,101130.53
2022-10-13T14:39:11.471Z,101121.75
2022-10-13T14:41:38.892Z,101125.91
2022-10-13T14:44:05.563Z,101118.34
2022-10-13T14:46:32.434Z,101101.53
2022-10-13T14:48:59.091Z,101011.53
2022-10-13T14:51:25.524Z,101121.00
2022-10-13T14:53:51.992Z,101113.19
2022-10-13T14:56:24.051Z,101072.31
2022-10-13T14:58:52.909Z,101127.09
2022-10-13T15:01:20.276Z,101054.34
2022-10-13T15:03:47.231Z,101088.81
2022-10-13T15:06:16.424Z,100906.16
2022-10-13T15:08:44.695Z,101058.88
2022-10-13T15:11:12.246Z,101075.66
2022-10-13T15:13:39.124Z,101103.34
2022-10-13T15:16:07.341Z,101086.13
2022-10-13T15:18:36.093Z,100939.69
2022-10-13T15:21:04.846Z,101107.63
2022-10-13T15:23:32.649Z,101049.25
2022-10-13T15:26:01.116Z,101064.28
2022-10-13T15:28:43.394Z,101106.56
2022-10-13T15:31:10.361Z,101108.50
2022-10-13T15:33:37.261Z,101102.69
2022-10-13T15:36:04.106Z,101085.78
2022-10-13T15:38:32.196Z,101047.34
2022-10-13T15:40:59.890Z,101090.75
2022-10-13T15:43:26.776Z,101059.44
2022-10-13T15:46:00.336Z,101094.09
2022-10-13T15:48:27.486Z,101095.00
2022-10-13T15:50:54.244Z,101089.16
2022-10-13T15:53:21.248Z,101027.69
2022-10-13T15:55:48.475Z,101091.69
2022-10-13T15:58:15.662Z,100952.00
2022-10-13T16:00:42.847Z,101089.81
2022-10-13T16:03:17.802Z,101091.88
2022-10-13T16:05:45.482Z,101092.72
2022-10-13T16:08:12.663Z,101093.94
2022-10-13T16:10:41.185Z,101092.63
2022-10-13T16:13:08.943Z,101095.91
2022-10-13T16:15:35.510Z,101043.88
2022-10-13T16:18:02.376Z,101095.13
2022-10-13T16:20:34.174Z,100974.84
2022-10-13T16:23:01.528Z,101095.13
2022-10-13T16:25:27.955Z,101078.00
2022-10-13T16:27:54.724Z,101096.91
2022-10-13T16:30:21.563Z,101109.94
2022-10-13T16:32:48.132Z,101101.38
2022-10-13T16:35:15.071Z,101079.16
2022-10-13T16:37:43.777Z,101098.41
2022-10-13T16:40:10.878Z,101100.72
2022-10-13T16:42:37.979Z,101075.69
2022-10-13T16:45:05.452Z,101102.75
2022-10-13T16:47:32.182Z,101057.03
2022-10-13T16:49:58.628Z,100975.41
2022-10-13T16:52:25.285Z,101075.44
2022-10-13T16:55:00.855Z,101066.41
2022-10-13T16:57:29.844Z,101107.94
2022-10-13T16:59:56.268Z,101116.84
2022-10-13T17:02:23.098Z,101093.47
2022-10-13T17:04:52.734Z,101096.91
2022-10-13T17:07:19.977Z,101085.69
2022-10-13T17:09:47.364Z,101078.47
2022-10-13T17:12:14.566Z,101096.09
2022-10-13T17:14:41.851Z,101093.94
2022-10-13T17:17:08.434Z,101094.09
2022-10-13T17:19:35.499Z,101094.28
2022-10-13T17:22:02.277Z,101088.69
2022-10-13T17:24:29.858Z,101102.84
2022-10-13T17:26:56.626Z,101094.75
2022-10-13T17:29:25.352Z,101015.88
2022-10-13T17:31:52.552Z,101061.44
2022-10-13T17:34:21.018Z,101038.59
2022-10-13T17:36:47.784Z,101099.22
2022-10-13T17:39:14.546Z,101030.22
2022-10-13T17:41:41.335Z,101100.78
2022-10-13T17:44:08.347Z,101085.44
2022-10-13T17:46:38.066Z,101091.00
2022-10-13T17:49:07.558Z,100910.25
2022-10-13T17:51:34.443Z,101049.81
2022-10-13T17:54:01.122Z,101020.19
2022-10-13T17:56:28.995Z,101062.31
2022-10-13T17:58:55.842Z,101083.16
2022-10-13T18:01:27.568Z,101013.56
2022-10-13T18:03:56.762Z,101099.22
2022-10-13T18:06:23.485Z,101104.28
2022-10-13T18:08:50.752Z,101096.59
2022-10-13T18:11:20.044Z,101066.91
2022-10-13T18:13:47.133Z,101095.19
2022-10-13T18:16:19.558Z,101104.38
2022-10-13T18:18:47.476Z,100880.91
2022-10-13T18:21:17.433Z,101111.47
2022-10-13T18:23:44.567Z,101022.59
2022-10-13T18:26:14.109Z,100910.69
2022-10-13T18:28:43.680Z,101008.94
2022-10-13T18:31:13.285Z,100988.22
2022-10-13T18:33:40.631Z,101111.69
2022-10-13T18:36:16.661Z,101113.56
2022-10-13T18:38:43.752Z,101105.19
2022-10-13T18:41:10.394Z,101058.19
2022-10-13T18:43:37.274Z,101111.69
2022-10-13T18:46:04.811Z,101112.78
2022-10-13T18:48:34.154Z,101119.47
2022-10-13T18:51:09.571Z,100994.94
2022-10-13T18:53:37.315Z,101112.09
2022-10-13T18:56:32.369Z,101112.66
2022-10-13T18:59:01.221Z,101128.78
2022-10-13T19:01:30.809Z,100942.41
2022-10-13T19:03:58.041Z,101097.34
2022-10-13T19:06:27.346Z,101065.25
2022-10-13T19:08:56.307Z,101107.59
2022-10-13T19:11:30.176Z,101065.16
2022-10-13T19:14:01.397Z,101105.75
2022-10-13T19:16:30.338Z,101105.88
2022-10-13T19:18:57.452Z,101088.69
2022-10-13T19:21:24.759Z,101108.25
2022-10-13T19:23:51.299Z,101114.50
2022-10-13T19:26:21.563Z,101076.25
2022-10-13T19:28:48.159Z,101088.84
2022-10-13T19:31:18.021Z,101115.47
2022-10-13T19:33:46.957Z,101053.84
2022-10-13T19:36:23.826Z,101104.28
2022-10-13T19:38:50.697Z,100997.66
2022-10-13T19:41:18.123Z,100948.53
2022-10-13T19:43:44.788Z,101115.81
2022-10-13T19:46:11.945Z,101013.75
2022-10-13T19:48:39.544Z,101112.09
2022-10-13T19:51:07.970Z,101079.88
2022-10-13T19:53:38.861Z,100787.31
2022-10-13T19:56:06.537Z,101089.53
2022-10-13T19:58:33.855Z,101084.84
2022-10-13T20:01:06.007Z,101010.25
2022-10-13T20:03:34.872Z,101093.78
2022-10-13T20:06:05.920Z,100997.50
2022-10-13T20:08:32.341Z,101111.91
2022-10-13T20:11:00.642Z,101086.22
2022-10-13T20:13:27.381Z,101107.81
2022-10-13T20:15:54.855Z,101043.56
2022-10-13T20:18:21.254Z,101097.09
2022-10-13T20:20:47.791Z,101067.84
2022-10-13T20:23:14.248Z,101108.19
2022-10-13T20:25:40.841Z,101106.25
2022-10-13T20:28:07.291Z,101078.44
2022-10-13T20:30:34.949Z,101088.47
2022-10-13T20:33:01.573Z,101103.72
2022-10-13T20:35:28.164Z,101039.19
2022-10-13T20:37:55.259Z,101107.00
2022-10-13T20:40:22.202Z,101106.16
2022-10-13T20:42:50.728Z,101068.44
2022-10-13T20:45:17.891Z,101082.94
2022-10-13T20:47:44.643Z,100898.56
2022-10-13T20:50:11.847Z,101113.44
2022-10-13T20:52:38.813Z,101108.53
2022-10-13T20:55:05.372Z,101089.19
2022-10-13T20:57:31.856Z,101103.72
2022-10-13T20:59:58.422Z,101107.22
2022-10-13T21:02:28.306Z,101067.84
2022-10-13T21:04:55.218Z,101094.00
2022-10-13T21:07:22.423Z,101097.22
2022-10-13T21:09:53.683Z,101106.03
2022-10-13T21:12:23.960Z,101043.34
2022-10-13T21:14:50.753Z,101114.28
2022-10-13T21:17:17.299Z,101090.25
2022-10-13T21:19:44.284Z,101103.69
2022-10-13T21:22:10.680Z,101105.56
2022-10-13T21:24:38.342Z,101082.00
2022-10-13T21:27:05.169Z,101100.72
2022-10-13T21:29:33.541Z,101073.63
2022-10-13T21:32:00.135Z,101120.41
2022-10-13T21:34:27.473Z,101104.38
2022-10-13T21:36:54.336Z,101086.38
2022-10-13T21:39:21.198Z,101092.34
2022-10-13T21:41:49.014Z,101091.41
2022-10-13T21:44:18.852Z,101119.44
2022-10-13T21:46:45.312Z,101036.97
2022-10-13T21:49:17.719Z,101053.13
2022-10-13T21:51:44.408Z,101112.88
2022-10-13T21:54:15.407Z,101029.63
2022-10-13T21:56:42.518Z,100971.91
2022-10-13T21:59:12.886Z,101109.91
2022-10-13T22:01:41.387Z,101077.38
2022-10-13T22:04:12.882Z,100952.47
2022-10-13T22:06:45.160Z,100962.84
2022-10-13T22:09:13.255Z,101107.53
2022-10-13T22:11:41.024Z,101107.88
2022-10-13T22:14:09.145Z,101088.47
2022-10-13T22:16:45.707Z,101103.53
2022-10-13T22:19:13.129Z,100992.84
2022-10-13T22:21:43.163Z,100957.25
2022-10-13T22:24:15.297Z,101062.78
2022-10-13T22:26:43.931Z,101095.06
2022-10-13T22:29:14.943Z,100869.34
2022-10-13T22:31:41.775Z,101093.41
2022-10-13T22:34:10.282Z,101092.59
2022-10-13T22:36:41.023Z,101086.56
2022-10-13T22:39:10.583Z,100995.88
2022-10-13T22:41:40.183Z,100908.19
2022-10-13T22:44:08.695Z,101088.00
2022-10-13T22:46:38.088Z,101080.09
2022-10-13T22:49:06.291Z,101056.91
2022-10-13T22:51:35.094Z,101089.88
2022-10-13T22:54:02.333Z,101087.53
2022-10-13T22:56:32.752Z,101079.16
2022-10-13T22:59:06.055Z,101081.88
2022-10-13T23:01:33.631Z,101088.94
2022-10-13T23:04:00.693Z,100977.03
2022-10-13T23:06:32.919Z,101082.69
2022-10-13T23:09:01.116Z,101080.94
2022-10-13T23:11:28.207Z,100882.75
2022-10-13T23:13:55.823Z,101010.81
2022-10-13T23:16:25.355Z,101076.56
2022-10-13T23:18:52.764Z,101074.94
2022-10-13T23:21:23.349Z,101034.50
2022-10-13T23:24:01.737Z,101066.31
2022-10-13T23:26:29.300Z,101066.78
2022-10-13T23:28:56.598Z,101016.88
2022-10-13T23:31:26.062Z,101063.13
2022-10-13T23:33:53.323Z,100963.06
2022-10-13T23:36:23.375Z,101090.69
2022-10-13T23:39:02.144Z,100968.31
2022-10-13T23:41:29.145Z,101061.03
2022-10-13T23:43:55.766Z,100986.56
2022-10-13T23:46:22.671Z,101059.47
2022-10-13T23:48:49.259Z,101059.72
2022-10-13T23:51:21.991Z,101046.97
2022-10-13T23:53:48.893Z,101065.84
2022-10-13T23:56:15.838Z,101061.84
2022-10-13T23:58:43.560Z,100950.72
